Time,TemperatureF,DewpointF,PressureIn,WindDirection,WindDirectionDegrees,WindSpeedMPH,WindSpeedGustMPH,Humidity,HourlyPrecipIn,Conditions,Clouds,dailyrainin,SoftwareType,DateUTC
2013-06-29 00:02:00,72.9,66.0,29.61,WSW,250,2.0,5.0,79,0.00,,,0.08,weatherlink.com 1.10,2013-06-29 04:02:00,
2013-06-29 00:17:00,71.9,66.0,29.61,SW,232,3.0,5.0,81,0.00,,,0.00,weatherlink.com 1.10,2013-06-29 04:17:00,
2013-06-29 00:32:00,71.3,66.0,29.61,WSW,251,0.0,4.0,83,0.00,,,0.00,weatherlink.com 1.10,2013-06-29 04:32:00,
2013-06-29 00:47:00,70.8,66.0,29.61,WSW,249,0.0,3.0,84,0.00,,,0.00,weatherlink.com 1.10,2013-06-29 04:47:00,
2013-06-29 01:02:00,70.5,66.0,29.60,West,275,1.0,2.0,86,0.00,,,0.00,weatherlink.com 1.10,2013-06-29 05:02:00,
2013-06-29 01:18:00,70.2,66.0,29.59,West,279,1.0,4.0,87,0.00,,,0.00,weatherlink.com 1.10,2013-06-29 05:18:00,
2013-06-29 01:33:00,70.1,66.0,29.59,WSW,256,0.0,2.0,87,0.00,,,0.00,weatherlink.com 1.10,2013-06-29 05:33:00,
2013-06-29 01:48:00,69.7,66.0,29.58,WSW,242,0.0,3.0,88,0.00,,,0.00,weatherlink.com 1.10,2013-06-29 05:48:00,
2013-06-29 02:03:00,69.6,66.0,29.58,WNW,288,0.0,1.0,89,0.00,,,0.00,weatherlink.com 1.10,2013-06-29 06:03:00,
2013-06-29 02:18:00,69.4,66.0,29.57,SW,229,0.0,2.0,90,0.00,,,0.00,weatherlink.com 1.10,2013-06-29 06:18:00,
2013-06-29 02:33:00,69.2,66.0,29.57,SW,232,1.0,2.0,90,0.00,,,0.00,weatherlink.com 1.10,2013-06-29 06:33:00,
2013-06-29 02:48:00,69.0,66.0,29.57,SW,227,0.0,2.0,90,0.00,,,0.00,weatherlink.com 1.10,2013-06-29 06:48:00,
2013-06-29 03:03:00,68.8,66.0,29.57,SW,234,0.0,1.0,91,0.00,,,0.00,weatherlink.com 1.10,2013-06-29 07:03:00,
2013-06-29 03:18:00,68.9,66.0,29.56,SW,234,0.0,1.0,91,0.00,,,0.00,weatherlink.com 1.10,2013-06-29 07:18:00,
2013-06-29 03:33:00,68.8,66.0,29.56,West,261,0.0,1.0,91,0.00,,,0.00,weatherlink.com 1.10,2013-06-29 07:33:00,
2013-06-29 03:48:00,69.0,66.0,29.56,West,267,0.0,1.0,90,0.00,,,0.00,weatherlink.com 1.10,2013-06-29 07:48:00,
2013-06-29 04:03:00,69.1,66.0,29.56,West,267,0.0,1.0,90,0.00,,,0.00,weatherlink.com 1.10,2013-06-29 08:03:00,
2013-06-29 04:18:00,68.8,66.0,29.58,SW,218,0.0,2.0,91,0.00,,,0.00,weatherlink.com 1.10,2013-06-29 08:18:00,
2013-06-29 04:33:00,68.4,66.0,29.58,SW,229,0.0,2.0,92,0.00,,,0.00,weatherlink.com 1.10,2013-06-29 08:33:00,
2013-06-29 04:48:00,68.3,66.0,29.58,SSW,196,0.0,0.0,92,0.00,,,0.00,weatherlink.com 1.10,2013-06-29 08:48:00,
2013-06-29 05:03:00,68.0,66.0,29.59,SSW,196,0.0,0.0,93,0.00,,,0.00,weatherlink.com 1.10,2013-06-29 09:03:00,
2013-06-29 05:18:00,67.9,66.0,29.59,SSW,196,0.0,0.0,93,0.00,,,0.00,weatherlink.com 1.10,2013-06-29 09:18:00,
2013-06-29 05:33:00,68.0,66.0,29.59,SW,217,0.0,0.0,94,0.00,,,0.00,weatherlink.com 1.10,2013-06-29 09:33:00,
2013-06-29 05:48:00,68.0,66.0,29.59,SW,217,0.0,0.0,94,0.00,,,0.00,weatherlink.com 1.10,2013-06-29 09:48:00,
2013-06-29 06:03:00,67.9,66.0,29.60,SW,215,0.0,0.0,94,0.00,,,0.00,weatherlink.com 1.10,2013-06-29 10:03:00,
2013-06-29 06:18:00,67.7,66.0,29.61,SSW,209,0.0,0.0,94,0.00,,,0.00,weatherlink.com 1.10,2013-06-29 10:18:00,
2013-06-29 06:33:00,67.5,66.0,29.61,SSW,209,0.0,1.0,94,0.00,,,0.00,weatherlink.com 1.10,2013-06-29 10:33:00,
2013-06-29 06:48:00,67.3,66.0,29.62,West,268,0.0,1.0,94,0.00,,,0.00,weatherlink.com 1.10,2013-06-29 10:48:00,
2013-06-29 07:03:00,67.1,65.0,29.62,West,275,0.0,1.0,94,0.00,,,0.00,weatherlink.com 1.10,2013-06-29 11:03:00,
2013-06-29 07:18:00,67.1,66.0,29.62,SW,214,1.0,1.0,95,0.00,,,0.00,weatherlink.com 1.10,2013-06-29 11:18:00,
2013-06-29 07:33:00,67.3,66.0,29.62,SW,229,0.0,1.0,94,0.00,,,0.00,weatherlink.com 1.10,2013-06-29 11:33:00,
2013-06-29 07:48:00,67.8,66.0,29.63,SW,221,0.0,3.0,93,0.00,,,0.00,weatherlink.com 1.10,2013-06-29 11:48:00,
2013-06-29 08:03:00,68.5,66.0,29.62,WSW,238,0.0,1.0,92,0.00,,,0.00,weatherlink.com 1.10,2013-06-29 12:03:00,
2013-06-29 08:18:00,69.3,67.0,29.63,WSW,238,0.0,0.0,91,0.00,,,0.00,weatherlink.com 1.10,2013-06-29 12:18:00,
2013-06-29 08:33:00,70.4,67.0,29.63,WSW,238,0.0,0.0,88,0.00,,,0.00,weatherlink.com 1.10,2013-06-29 12:33:00,
2013-06-29 08:48:00,71.3,67.0,29.63,SW,232,0.0,1.0,86,0.00,,,0.00,weatherlink.com 1.10,2013-06-29 12:48:00,
2013-06-29 09:03:00,71.8,68.0,29.64,SW,223,0.0,1.0,86,0.00,,,0.00,weatherlink.com 1.10,2013-06-29 13:03:00,
2013-06-29 09:18:00,72.6,68.0,29.64,SW,227,1.0,4.0,85,0.00,,,0.00,weatherlink.com 1.10,2013-06-29 13:18:00,
2013-06-29 09:33:00,73.5,67.0,29.64,West,259,0.0,7.0,81,0.00,,,0.00,weatherlink.com 1.10,2013-06-29 13:33:00,
2013-06-29 09:48:00,73.9,68.0,29.64,WSW,241,0.0,2.0,81,0.00,,,0.00,weatherlink.com 1.10,2013-06-29 13:48:00,
2013-06-29 10:03:00,74.8,68.0,29.63,WNW,296,0.0,2.0,79,0.00,,,0.00,weatherlink.com 1.10,2013-06-29 14:03:00,
2013-06-29 10:18:00,76.0,68.0,29.63,WNW,290,0.0,2.0,76,0.00,,,0.00,weatherlink.com 1.10,2013-06-29 14:18:00,
2013-06-29 10:33:00,76.1,67.0,29.63,SW,229,0.0,3.0,74,0.00,,,0.00,weatherlink.com 1.10,2013-06-29 14:33:00,
2013-06-29 10:48:00,75.8,66.0,29.63,SSW,204,0.0,3.0,71,0.00,,,0.00,weatherlink.com 1.10,2013-06-29 14:48:00,
2013-06-29 11:03:00,76.5,66.0,29.64,SW,232,1.0,5.0,70,0.00,,,0.00,weatherlink.com 1.10,2013-06-29 15:03:00,
2013-06-29 11:18:00,76.8,67.0,29.64,SW,226,0.0,2.0,72,0.00,,,0.00,weatherlink.com 1.10,2013-06-29 15:18:00,
2013-06-29 11:34:00,77.8,67.0,29.64,SW,229,3.0,5.0,69,0.00,,,0.00,weatherlink.com 1.10,2013-06-29 15:34:00,
2013-06-29 11:49:00,78.3,68.0,29.64,WNW,282,0.0,4.0,70,0.00,,,0.00,weatherlink.com 1.10,2013-06-29 15:49:00,
2013-06-29 12:04:00,79.0,68.0,29.64,WNW,296,0.0,4.0,68,0.00,,,0.00,weatherlink.com 1.10,2013-06-29 16:04:00,
2013-06-29 12:19:00,79.7,68.0,29.64,SW,219,1.0,3.0,67,0.00,,,0.00,weatherlink.com 1.10,2013-06-29 16:19:00,
2013-06-29 12:34:00,79.6,68.0,29.64,SSW,198,2.0,3.0,67,0.00,,,0.00,weatherlink.com 1.10,2013-06-29 16:34:00,
2013-06-29 12:49:00,80.5,67.0,29.63,West,259,2.0,3.0,63,0.00,,,0.00,weatherlink.com 1.10,2013-06-29 16:49:00,
2013-06-29 13:04:00,80.7,66.0,29.64,West,273,0.0,4.0,61,0.00,,,0.00,weatherlink.com 1.10,2013-06-29 17:04:00,
2013-06-29 13:19:00,81.2,66.0,29.64,WNW,298,1.0,3.0,61,0.00,,,0.00,weatherlink.com 1.10,2013-06-29 17:19:00,
2013-06-29 13:34:00,81.7,67.0,29.63,WNW,295,0.0,3.0,61,0.00,,,0.00,weatherlink.com 1.10,2013-06-29 17:34:00,
2013-06-29 13:49:00,82.4,67.0,29.63,SSE,153,2.0,5.0,60,0.00,,,0.00,weatherlink.com 1.10,2013-06-29 17:49:00,
2013-06-29 14:04:00,82.8,67.0,29.62,SSW,200,4.0,4.0,59,0.00,,,0.00,weatherlink.com 1.10,2013-06-29 18:04:00,
2013-06-29 14:19:00,83.8,66.0,29.62,WNW,299,0.0,4.0,56,0.00,,,0.00,weatherlink.com 1.10,2013-06-29 18:19:00,
2013-06-29 14:34:00,83.9,66.0,29.61,SSW,204,3.0,7.0,56,0.00,,,0.00,weatherlink.com 1.10,2013-06-29 18:34:00,
2013-06-29 14:49:00,84.2,67.0,29.61,SW,215,1.0,7.0,57,0.00,,,0.00,weatherlink.com 1.10,2013-06-29 18:49:00,
2013-06-29 15:04:00,83.3,67.0,29.61,South,184,1.0,5.0,59,0.00,,,0.00,weatherlink.com 1.10,2013-06-29 19:04:00,
2013-06-29 15:19:00,83.2,67.0,29.61,SSW,205,5.0,5.0,59,0.00,,,0.00,weatherlink.com 1.10,2013-06-29 19:19:00,
2013-06-29 15:34:00,83.4,68.0,29.61,SSW,211,0.0,3.0,61,0.00,,,0.00,weatherlink.com 1.10,2013-06-29 19:34:00,
2013-06-29 15:49:00,82.7,66.0,29.61,West,275,1.0,4.0,57,0.00,,,0.00,weatherlink.com 1.10,2013-06-29 19:49:00,
2013-06-29 16:04:00,82.6,68.0,29.61,WNW,297,0.0,3.0,61,0.00,,,0.00,weatherlink.com 1.10,2013-06-29 20:04:00,
2013-06-29 16:19:00,82.3,67.0,29.61,SW,222,0.0,3.0,60,0.00,,,0.00,weatherlink.com 1.10,2013-06-29 20:19:00,
2013-06-29 16:34:00,82.0,68.0,29.61,NNW,333,0.0,3.0,62,0.00,,,0.00,weatherlink.com 1.10,2013-06-29 20:34:00,
2013-06-29 16:49:00,82.6,68.0,29.61,West,267,1.0,4.0,61,0.00,,,0.00,weatherlink.com 1.10,2013-06-29 20:49:00,
2013-06-29 17:04:00,82.0,69.0,29.61,South,180,0.0,7.0,64,0.00,,,0.00,weatherlink.com 1.10,2013-06-29 21:04:00,
2013-06-29 17:19:00,82.5,68.0,29.61,SW,215,1.0,6.0,62,0.00,,,0.00,weatherlink.com 1.10,2013-06-29 21:19:00,
2013-06-29 17:34:00,82.5,68.0,29.61,SSW,192,0.0,5.0,62,0.00,,,0.00,weatherlink.com 1.10,2013-06-29 21:34:00,
2013-06-29 17:49:00,82.5,69.0,29.60,SW,225,0.0,4.0,64,0.00,,,0.00,weatherlink.com 1.10,2013-06-29 21:49:00,
2013-06-29 18:04:00,82.9,68.0,29.60,SSW,210,0.0,5.0,61,0.00,,,0.00,weatherlink.com 1.10,2013-06-29 22:04:00,
2013-06-29 18:19:00,82.6,68.0,29.61,SW,221,0.0,3.0,62,0.00,,,0.00,weatherlink.com 1.10,2013-06-29 22:19:00,
2013-06-29 18:34:00,82.3,68.0,29.61,SSE,157,1.0,5.0,63,0.00,,,0.00,weatherlink.com 1.10,2013-06-29 22:34:00,
2013-06-29 18:49:00,82.0,69.0,29.61,SW,234,0.0,4.0,65,0.00,,,0.00,weatherlink.com 1.10,2013-06-29 22:49:00,
2013-06-29 19:04:00,81.8,69.0,29.62,SSW,197,1.0,4.0,66,0.00,,,0.00,weatherlink.com 1.10,2013-06-29 23:04:00,
2013-06-29 19:19:00,81.5,69.0,29.62,SW,227,0.0,6.0,66,0.00,,,0.00,weatherlink.com 1.10,2013-06-29 23:19:00,
2013-06-29 19:34:00,81.0,70.0,29.62,SSW,210,4.0,7.0,69,0.00,,,0.00,weatherlink.com 1.10,2013-06-29 23:34:00,
2013-06-29 19:49:00,80.5,70.0,29.63,SSW,202,0.0,6.0,71,0.00,,,0.00,weatherlink.com 1.10,2013-06-29 23:49:00,
2013-06-29 20:04:00,79.9,70.0,29.64,SSW,212,0.0,4.0,72,0.00,,,0.00,weatherlink.com 1.10,2013-06-30 00:04:00,
2013-06-29 20:19:00,79.3,70.0,29.64,South,176,1.0,6.0,73,0.00,,,0.00,weatherlink.com 1.10,2013-06-30 00:19:00,
2013-06-29 20:34:00,79.0,70.0,29.64,SSW,194,1.0,5.0,74,0.00,,,0.00,weatherlink.com 1.10,2013-06-30 00:34:00,
2013-06-29 20:49:00,78.6,70.0,29.64,SW,219,2.0,4.0,75,0.00,,,0.00,weatherlink.com 1.10,2013-06-30 00:49:00,
2013-06-29 21:04:00,78.2,70.0,29.64,SSW,192,0.0,5.0,75,0.00,,,0.00,weatherlink.com 1.10,2013-06-30 01:04:00,
2013-06-29 21:19:00,77.7,70.0,29.64,South,182,0.0,4.0,76,0.00,,,0.00,weatherlink.com 1.10,2013-06-30 01:19:00,
2013-06-29 21:34:00,77.2,70.0,29.65,SSW,199,1.0,3.0,77,0.00,,,0.00,weatherlink.com 1.10,2013-06-30 01:34:00,
2013-06-29 21:49:00,77.0,70.0,29.65,South,182,0.0,3.0,78,0.00,,,0.00,weatherlink.com 1.10,2013-06-30 01:49:00,
2013-06-29 22:04:00,76.5,70.0,29.66,SSW,209,3.0,3.0,79,0.00,,,0.00,weatherlink.com 1.10,2013-06-30 02:04:00,
2013-06-29 22:19:00,76.2,70.0,29.67,South,177,0.0,2.0,80,0.00,,,0.00,weatherlink.com 1.10,2013-06-30 02:19:00,
2013-06-29 22:34:00,75.8,69.0,29.67,South,190,0.0,2.0,80,0.00,,,0.00,weatherlink.com 1.10,2013-06-30 02:34:00,
2013-06-29 22:49:00,75.5,70.0,29.68,South,190,0.0,0.0,82,0.00,,,0.00,weatherlink.com 1.10,2013-06-30 02:49:00,
2013-06-29 23:04:00,74.9,69.0,29.67,South,190,0.0,0.0,83,0.00,,,0.00,weatherlink.com 1.10,2013-06-30 03:04:00,
2013-06-29 23:19:00,74.4,69.0,29.67,SSE,162,0.0,1.0,84,0.00,,,0.00,weatherlink.com 1.10,2013-06-30 03:19:00,
2013-06-29 23:34:00,73.9,69.0,29.68,SSE,162,0.0,0.0,85,0.00,,,0.00,weatherlink.com 1.10,2013-06-30 03:34:00,
2013-06-29 23:49:00,73.2,69.0,29.69,SSE,162,0.0,0.0,86,0.00,,,0.00,weatherlink.com 1.10,2013-06-30 03:49:00,